sensor_id;sensor_type;location;lat;lon;timestamp;P1;durP1;ratioP1;P2;durP2;ratioP2
9328;SDS011;4703;48.748;19.142;2023-07-13T00:01:54;6.93;;;6.37;;
9328;SDS011;4703;48.748;19.142;2023-07-13T00:04:22;6.67;;;6.20;;
9328;SDS011;4703;48.748;19.142;2023-07-13T00:06:52;7.90;;;6.63;;
9328;SDS011;4703;48.748;19.142;2023-07-13T00:09:20;6.90;;;6.23;;
9328;SDS011;4703;48.748;19.142;2023-07-13T00:11:53;6.50;;;5.97;;
9328;SDS011;4703;48.748;19.142;2023-07-13T00:14:22;6.80;;;6.30;;
9328;SDS011;4703;48.748;19.142;2023-07-13T00:16:51;7.40;;;6.70;;
9328;SDS011;4703;48.748;19.142;2023-07-13T00:19:18;6.90;;;6.40;;
9328;SDS011;4703;48.748;19.142;2023-07-13T00:21:46;7.13;;;6.47;;
9328;SDS011;4703;48.748;19.142;2023-07-13T00:24:14;7.63;;;6.90;;
9328;SDS011;4703;48.748;19.142;2023-07-13T00:26:49;7.43;;;6.70;;
9328;SDS011;4703;48.748;19.142;2023-07-13T00:29:16;7.03;;;6.27;;
9328;SDS011;4703;48.748;19.142;2023-07-13T00:31:43;7.03;;;6.33;;
9328;SDS011;4703;48.748;19.142;2023-07-13T00:34:11;7.17;;;6.60;;
9328;SDS011;4703;48.748;19.142;2023-07-13T00:36:38;8.23;;;7.23;;
9328;SDS011;4703;48.748;19.142;2023-07-13T00:39:05;7.20;;;6.63;;
9328;SDS011;4703;48.748;19.142;2023-07-13T00:41:32;7.30;;;6.63;;
9328;SDS011;4703;48.748;19.142;2023-07-13T00:44:00;8.13;;;7.37;;
9328;SDS011;4703;48.748;19.142;2023-07-13T00:46:29;7.37;;;6.67;;
9328;SDS011;4703;48.748;19.142;2023-07-13T00:49:01;6.93;;;6.20;;
9328;SDS011;4703;48.748;19.142;2023-07-13T00:51:36;7.23;;;6.63;;
9328;SDS011;4703;48.748;19.142;2023-07-13T00:54:23;7.00;;;6.40;;
9328;SDS011;4703;48.748;19.142;2023-07-13T00:56:57;7.07;;;6.47;;
9328;SDS011;4703;48.748;19.142;2023-07-13T00:59:28;12.40;;;6.27;;
9328;SDS011;4703;48.748;19.142;2023-07-13T01:01:57;7.07;;;6.57;;
9328;SDS011;4703;48.748;19.142;2023-07-13T01:04:24;6.97;;;6.37;;
9328;SDS011;4703;48.748;19.142;2023-07-13T01:06:52;8.63;;;6.60;;
9328;SDS011;4703;48.748;19.142;2023-07-13T01:09:19;6.30;;;5.73;;
9328;SDS011;4703;48.748;19.142;2023-07-13T01:11:47;7.50;;;6.80;;
9328;SDS011;4703;48.748;19.142;2023-07-13T01:14:15;11.00;;;7.47;;
9328;SDS011;4703;48.748;19.142;2023-07-13T01:16:44;7.80;;;7.10;;
9328;SDS011;4703;48.748;19.142;2023-07-13T01:19:19;7.63;;;6.80;;
9328;SDS011;4703;48.748;19.142;2023-07-13T01:22:06;7.63;;;6.93;;
9328;SDS011;4703;48.748;19.142;2023-07-13T01:24:41;6.57;;;6.10;;
9328;SDS011;4703;48.748;19.142;2023-07-13T01:27:15;7.60;;;6.90;;
9328;SDS011;4703;48.748;19.142;2023-07-13T01:29:46;7.73;;;7.03;;
9328;SDS011;4703;48.748;19.142;2023-07-13T01:32:16;7.17;;;6.60;;
9328;SDS011;4703;48.748;19.142;2023-07-13T01:34:51;7.77;;;7.07;;
9328;SDS011;4703;48.748;19.142;2023-07-13T01:37:21;7.93;;;7.30;;
9328;SDS011;4703;48.748;19.142;2023-07-13T01:39:50;8.00;;;7.20;;
9328;SDS011;4703;48.748;19.142;2023-07-13T01:42:17;8.47;;;7.70;;
9328;SDS011;4703;48.748;19.142;2023-07-13T01:44:44;7.60;;;6.90;;
9328;SDS011;4703;48.748;19.142;2023-07-13T01:47:11;8.57;;;7.77;;
9328;SDS011;4703;48.748;19.142;2023-07-13T01:49:38;10.10;;;8.57;;
9328;SDS011;4703;48.748;19.142;2023-07-13T01:52:05;9.43;;;8.50;;
9328;SDS011;4703;48.748;19.142;2023-07-13T01:54:33;8.63;;;7.90;;
9328;SDS011;4703;48.748;19.142;2023-07-13T01:57:00;8.20;;;7.50;;
9328;SDS011;4703;48.748;19.142;2023-07-13T01:59:27;7.97;;;7.37;;
9328;SDS011;4703;48.748;19.142;2023-07-13T02:01:54;8.00;;;7.40;;
9328;SDS011;4703;48.748;19.142;2023-07-13T02:04:21;7.50;;;6.90;;
9328;SDS011;4703;48.748;19.142;2023-07-13T02:06:48;8.33;;;7.73;;
9328;SDS011;4703;48.748;19.142;2023-07-13T02:09:15;8.20;;;7.50;;
9328;SDS011;4703;48.748;19.142;2023-07-13T02:11:42;8.00;;;7.30;;
9328;SDS011;4703;48.748;19.142;2023-07-13T02:14:09;7.67;;;6.97;;
9328;SDS011;4703;48.748;19.142;2023-07-13T02:16:37;7.70;;;7.10;;
9328;SDS011;4703;48.748;19.142;2023-07-13T02:19:04;7.80;;;6.80;;
9328;SDS011;4703;48.748;19.142;2023-07-13T02:21:32;7.63;;;6.83;;
9328;SDS011;4703;48.748;19.142;2023-07-13T02:23:59;7.97;;;7.17;;
9328;SDS011;4703;48.748;19.142;2023-07-13T02:26:27;8.33;;;7.53;;
9328;SDS011;4703;48.748;19.142;2023-07-13T02:28:54;8.20;;;7.40;;
9328;SDS011;4703;48.748;19.142;2023-07-13T02:31:21;7.43;;;6.83;;
9328;SDS011;4703;48.748;19.142;2023-07-13T02:33:48;8.30;;;7.50;;
9328;SDS011;4703;48.748;19.142;2023-07-13T02:36:15;8.60;;;7.90;;
9328;SDS011;4703;48.748;19.142;2023-07-13T02:38:42;8.13;;;7.43;;
9328;SDS011;4703;48.748;19.142;2023-07-13T02:41:09;9.17;;;8.37;;
9328;SDS011;4703;48.748;19.142;2023-07-13T02:43:36;7.40;;;6.70;;
9328;SDS011;4703;48.748;19.142;2023-07-13T02:46:04;8.63;;;7.83;;
9328;SDS011;4703;48.748;19.142;2023-07-13T02:48:34;8.57;;;7.67;;
9328;SDS011;4703;48.748;19.142;2023-07-13T02:51:05;7.73;;;7.03;;
9328;SDS011;4703;48.748;19.142;2023-07-13T02:53:34;8.30;;;7.60;;
9328;SDS011;4703;48.748;19.142;2023-07-13T02:56:02;9.20;;;7.97;;
9328;SDS011;4703;48.748;19.142;2023-07-13T02:58:31;9.17;;;8.27;;
9328;SDS011;4703;48.748;19.142;2023-07-13T03:00:59;8.13;;;7.50;;
9328;SDS011;4703;48.748;19.142;2023-07-13T03:03:32;8.97;;;7.93;;
9328;SDS011;4703;48.748;19.142;2023-07-13T03:06:00;8.93;;;8.13;;
9328;SDS011;4703;48.748;19.142;2023-07-13T03:08:31;10.20;;;8.00;;
9328;SDS011;4703;48.748;19.142;2023-07-13T03:11:03;9.00;;;8.20;;
9328;SDS011;4703;48.748;19.142;2023-07-13T03:13:37;7.13;;;6.53;;
9328;SDS011;4703;48.748;19.142;2023-07-13T03:16:05;8.13;;;7.37;;
9328;SDS011;4703;48.748;19.142;2023-07-13T03:18:34;7.73;;;7.03;;
9328;SDS011;4703;48.748;19.142;2023-07-13T03:21:03;8.10;;;7.30;;
9328;SDS011;4703;48.748;19.142;2023-07-13T03:23:31;8.07;;;7.37;;
9328;SDS011;4703;48.748;19.142;2023-07-13T03:26:06;6.90;;;6.40;;
9328;SDS011;4703;48.748;19.142;2023-07-13T03:28:39;7.43;;;6.73;;
9328;SDS011;4703;48.748;19.142;2023-07-13T03:31:11;8.90;;;8.20;;
9328;SDS011;4703;48.748;19.142;2023-07-13T03:33:49;9.17;;;8.20;;
9328;SDS011;4703;48.748;19.142;2023-07-13T03:36:18;9.13;;;8.30;;
9328;SDS011;4703;48.748;19.142;2023-07-13T03:38:50;7.17;;;6.47;;
9328;SDS011;4703;48.748;19.142;2023-07-13T03:41:20;8.43;;;7.60;;
9328;SDS011;4703;48.748;19.142;2023-07-13T03:43:49;7.77;;;7.17;;
9328;SDS011;4703;48.748;19.142;2023-07-13T03:46:17;7.10;;;6.50;;
9328;SDS011;4703;48.748;19.142;2023-07-13T03:48:45;7.57;;;6.97;;
9328;SDS011;4703;48.748;19.142;2023-07-13T03:51:13;8.07;;;7.47;;
9328;SDS011;4703;48.748;19.142;2023-07-13T03:53:42;8.00;;;7.30;;
9328;SDS011;4703;48.748;19.142;2023-07-13T03:56:11;7.43;;;6.73;;
9328;SDS011;4703;48.748;19.142;2023-07-13T03:58:42;7.40;;;6.80;;
9328;SDS011;4703;48.748;19.142;2023-07-13T04:01:12;8.00;;;7.30;;
9328;SDS011;4703;48.748;19.142;2023-07-13T04:03:42;8.60;;;7.80;;
9328;SDS011;4703;48.748;19.142;2023-07-13T04:06:18;8.80;;;8.00;;
9328;SDS011;4703;48.748;19.142;2023-07-13T04:08:51;7.73;;;6.93;;
9328;SDS011;4703;48.748;19.142;2023-07-13T04:11:21;8.60;;;7.80;;
9328;SDS011;4703;48.748;19.142;2023-07-13T04:13:51;9.10;;;8.40;;
9328;SDS011;4703;48.748;19.142;2023-07-13T04:16:19;8.80;;;8.07;;
9328;SDS011;4703;48.748;19.142;2023-07-13T04:18:47;10.40;;;8.07;;
9328;SDS011;4703;48.748;19.142;2023-07-13T04:21:15;8.43;;;7.70;;
9328;SDS011;4703;48.748;19.142;2023-07-13T04:23:42;8.23;;;7.33;;
9328;SDS011;4703;48.748;19.142;2023-07-13T04:26:09;8.40;;;7.40;;
9328;SDS011;4703;48.748;19.142;2023-07-13T04:28:37;8.97;;;8.07;;
9328;SDS011;4703;48.748;19.142;2023-07-13T04:31:04;9.40;;;8.50;;
9328;SDS011;4703;48.748;19.142;2023-07-13T04:33:32;8.10;;;7.40;;
9328;SDS011;4703;48.748;19.142;2023-07-13T04:35:59;7.80;;;7.03;;
9328;SDS011;4703;48.748;19.142;2023-07-13T04:38:28;7.90;;;7.30;;
9328;SDS011;4703;48.748;19.142;2023-07-13T04:40:59;8.20;;;7.50;;
9328;SDS011;4703;48.748;19.142;2023-07-13T04:43:28;7.37;;;6.77;;
9328;SDS011;4703;48.748;19.142;2023-07-13T04:45:56;8.00;;;7.30;;
9328;SDS011;4703;48.748;19.142;2023-07-13T04:48:29;7.97;;;7.27;;
9328;SDS011;4703;48.748;19.142;2023-07-13T04:50:57;8.53;;;7.40;;
9328;SDS011;4703;48.748;19.142;2023-07-13T04:53:25;12.10;;;7.40;;
9328;SDS011;4703;48.748;19.142;2023-07-13T04:55:53;7.43;;;6.77;;
9328;SDS011;4703;48.748;19.142;2023-07-13T04:58:21;8.60;;;7.80;;
9328;SDS011;4703;48.748;19.142;2023-07-13T05:00:49;7.70;;;7.07;;
9328;SDS011;4703;48.748;19.142;2023-07-13T05:03:16;8.97;;;7.97;;
9328;SDS011;4703;48.748;19.142;2023-07-13T05:05:53;10.10;;;9.30;;
9328;SDS011;4703;48.748;19.142;2023-07-13T05:08:25;10.53;;;9.53;;
9328;SDS011;4703;48.748;19.142;2023-07-13T05:10:53;10.07;;;9.20;;
9328;SDS011;4703;48.748;19.142;2023-07-13T05:13:20;9.97;;;9.07;;
9328;SDS011;4703;48.748;19.142;2023-07-13T05:15:58;9.80;;;8.97;;
9328;SDS011;4703;48.748;19.142;2023-07-13T05:18:30;10.13;;;9.23;;
9328;SDS011;4703;48.748;19.142;2023-07-13T05:21:05;9.87;;;8.90;;
9328;SDS011;4703;48.748;19.142;2023-07-13T05:23:36;10.73;;;9.73;;
9328;SDS011;4703;48.748;19.142;2023-07-13T05:26:03;10.70;;;8.93;;
9328;SDS011;4703;48.748;19.142;2023-07-13T05:28:35;9.87;;;8.97;;
9328;SDS011;4703;48.748;19.142;2023-07-13T05:31:03;9.30;;;8.60;;
9328;SDS011;4703;48.748;19.142;2023-07-13T05:33:31;10.87;;;9.87;;
9328;SDS011;4703;48.748;19.142;2023-07-13T05:35:58;9.53;;;8.73;;
9328;SDS011;4703;48.748;19.142;2023-07-13T05:38:26;10.57;;;9.50;;
9328;SDS011;4703;48.748;19.142;2023-07-13T05:40:54;10.40;;;9.50;;
9328;SDS011;4703;48.748;19.142;2023-07-13T05:43:23;10.80;;;9.83;;
9328;SDS011;4703;48.748;19.142;2023-07-13T05:45:54;9.53;;;8.63;;
9328;SDS011;4703;48.748;19.142;2023-07-13T05:48:22;9.93;;;9.07;;
9328;SDS011;4703;48.748;19.142;2023-07-13T05:50:50;10.73;;;9.30;;
9328;SDS011;4703;48.748;19.142;2023-07-13T05:53:17;9.77;;;8.77;;
9328;SDS011;4703;48.748;19.142;2023-07-13T05:55:45;10.30;;;9.40;;
9328;SDS011;4703;48.748;19.142;2023-07-13T05:58:17;11.60;;;10.50;;
9328;SDS011;4703;48.748;19.142;2023-07-13T06:00:45;10.33;;;9.23;;
9328;SDS011;4703;48.748;19.142;2023-07-13T06:03:13;11.47;;;10.30;;
9328;SDS011;4703;48.748;19.142;2023-07-13T06:05:41;10.53;;;9.63;;
9328;SDS011;4703;48.748;19.142;2023-07-13T06:08:08;12.70;;;10.10;;
9328;SDS011;4703;48.748;19.142;2023-07-13T06:10:35;13.20;;;9.57;;
9328;SDS011;4703;48.748;19.142;2023-07-13T06:13:03;11.20;;;10.20;;
9328;SDS011;4703;48.748;19.142;2023-07-13T06:15:30;10.40;;;9.50;;
9328;SDS011;4703;48.748;19.142;2023-07-13T06:17:57;11.17;;;10.17;;
9328;SDS011;4703;48.748;19.142;2023-07-13T06:20:24;11.10;;;8.53;;
9328;SDS011;4703;48.748;19.142;2023-07-13T06:22:51;9.77;;;8.77;;
9328;SDS011;4703;48.748;19.142;2023-07-13T06:25:18;10.23;;;9.30;;
9328;SDS011;4703;48.748;19.142;2023-07-13T06:27:45;10.47;;;9.60;;
9328;SDS011;4703;48.748;19.142;2023-07-13T06:30:12;9.53;;;8.70;;
9328;SDS011;4703;48.748;19.142;2023-07-13T06:32:40;11.37;;;10.40;;
9328;SDS011;4703;48.748;19.142;2023-07-13T06:35:07;18.80;;;16.90;;
9328;SDS011;4703;48.748;19.142;2023-07-13T06:37:34;14.40;;;13.00;;
9328;SDS011;4703;48.748;19.142;2023-07-13T06:40:01;11.93;;;10.80;;
9328;SDS011;4703;48.748;19.142;2023-07-13T06:42:29;12.03;;;10.70;;
9328;SDS011;4703;48.748;19.142;2023-07-13T06:44:56;10.90;;;10.00;;
9328;SDS011;4703;48.748;19.142;2023-07-13T06:47:23;11.90;;;10.80;;
9328;SDS011;4703;48.748;19.142;2023-07-13T06:49:50;11.10;;;9.43;;
9328;SDS011;4703;48.748;19.142;2023-07-13T06:52:17;9.57;;;8.77;;
9328;SDS011;4703;48.748;19.142;2023-07-13T06:54:44;9.97;;;9.10;;
9328;SDS011;4703;48.748;19.142;2023-07-13T06:57:11;9.67;;;8.77;;
9328;SDS011;4703;48.748;19.142;2023-07-13T06:59:38;10.97;;;9.93;;
9328;SDS011;4703;48.748;19.142;2023-07-13T07:02:05;9.47;;;8.67;;
9328;SDS011;4703;48.748;19.142;2023-07-13T07:04:35;10.43;;;9.43;;
9328;SDS011;4703;48.748;19.142;2023-07-13T07:07:02;9.97;;;8.90;;
9328;SDS011;4703;48.748;19.142;2023-07-13T07:09:29;9.07;;;8.17;;
9328;SDS011;4703;48.748;19.142;2023-07-13T07:11:57;9.23;;;7.90;;
9328;SDS011;4703;48.748;19.142;2023-07-13T07:14:30;9.07;;;8.17;;
9328;SDS011;4703;48.748;19.142;2023-07-13T07:16:57;8.37;;;7.53;;
9328;SDS011;4703;48.748;19.142;2023-07-13T07:19:25;10.40;;;9.53;;
9328;SDS011;4703;48.748;19.142;2023-07-13T07:21:55;8.93;;;8.10;;
9328;SDS011;4703;48.748;19.142;2023-07-13T07:24:22;9.13;;;8.03;;
9328;SDS011;4703;48.748;19.142;2023-07-13T07:26:49;10.27;;;9.20;;
9328;SDS011;4703;48.748;19.142;2023-07-13T07:29:19;9.40;;;8.60;;
9328;SDS011;4703;48.748;19.142;2023-07-13T07:31:51;10.53;;;9.53;;
9328;SDS011;4703;48.748;19.142;2023-07-13T07:34:21;9.43;;;8.53;;
9328;SDS011;4703;48.748;19.142;2023-07-13T07:36:49;9.30;;;8.37;;
9328;SDS011;4703;48.748;19.142;2023-07-13T07:39:18;9.63;;;8.87;;
9328;SDS011;4703;48.748;19.142;2023-07-13T07:41:45;9.23;;;8.43;;
9328;SDS011;4703;48.748;19.142;2023-07-13T07:44:15;10.03;;;9.03;;
9328;SDS011;4703;48.748;19.142;2023-07-13T07:46:42;9.53;;;8.43;;
9328;SDS011;4703;48.748;19.142;2023-07-13T07:49:09;9.13;;;8.30;;
9328;SDS011;4703;48.748;19.142;2023-07-13T07:51:37;9.07;;;8.27;;
9328;SDS011;4703;48.748;19.142;2023-07-13T07:54:04;10.50;;;9.40;;
9328;SDS011;4703;48.748;19.142;2023-07-13T07:56:31;11.80;;;10.60;;
9328;SDS011;4703;48.748;19.142;2023-07-13T07:59:01;10.67;;;9.77;;
9328;SDS011;4703;48.748;19.142;2023-07-13T08:01:31;12.47;;;11.23;;
9328;SDS011;4703;48.748;19.142;2023-07-13T08:04:01;12.10;;;10.83;;
9328;SDS011;4703;48.748;19.142;2023-07-13T08:06:32;12.73;;;10.83;;
9328;SDS011;4703;48.748;19.142;2023-07-13T08:09:02;12.20;;;10.47;;
9328;SDS011;4703;48.748;19.142;2023-07-13T08:11:30;11.70;;;10.50;;
9328;SDS011;4703;48.748;19.142;2023-07-13T08:14:01;10.23;;;9.33;;
9328;SDS011;4703;48.748;19.142;2023-07-13T08:16:28;9.00;;;8.30;;
9328;SDS011;4703;48.748;19.142;2023-07-13T08:18:55;9.73;;;8.73;;
9328;SDS011;4703;48.748;19.142;2023-07-13T08:21:22;10.63;;;9.73;;
9328;SDS011;4703;48.748;19.142;2023-07-13T08:23:49;10.70;;;9.70;;
9328;SDS011;4703;48.748;19.142;2023-07-13T08:26:16;8.97;;;8.23;;
9328;SDS011;4703;48.748;19.142;2023-07-13T08:28:43;9.47;;;8.67;;
9328;SDS011;4703;48.748;19.142;2023-07-13T08:31:10;11.43;;;7.90;;
9328;SDS011;4703;48.748;19.142;2023-07-13T08:33:38;8.57;;;7.77;;
9328;SDS011;4703;48.748;19.142;2023-07-13T08:36:07;8.53;;;7.83;;
9328;SDS011;4703;48.748;19.142;2023-07-13T08:38:34;8.40;;;7.70;;
9328;SDS011;4703;48.748;19.142;2023-07-13T08:41:03;12.10;;;8.63;;
9328;SDS011;4703;48.748;19.142;2023-07-13T08:43:41;9.60;;;8.70;;
9328;SDS011;4703;48.748;19.142;2023-07-13T08:46:13;8.77;;;8.00;;
9328;SDS011;4703;48.748;19.142;2023-07-13T08:49:05;10.43;;;8.30;;
9328;SDS011;4703;48.748;19.142;2023-07-13T08:51:44;8.93;;;8.23;;
9328;SDS011;4703;48.748;19.142;2023-07-13T08:54:17;8.93;;;8.13;;
9328;SDS011;4703;48.748;19.142;2023-07-13T08:57:08;9.70;;;8.80;;
9328;SDS011;4703;48.748;19.142;2023-07-13T08:59:45;10.37;;;9.40;;
9328;SDS011;4703;48.748;19.142;2023-07-13T09:05:01;9.27;;;8.47;;
9328;SDS011;4703;48.748;19.142;2023-07-13T09:07:40;10.70;;;9.70;;
9328;SDS011;4703;48.748;19.142;2023-07-13T09:10:32;9.63;;;8.80;;
9328;SDS011;4703;48.748;19.142;2023-07-13T09:13:15;10.13;;;9.13;;
9328;SDS011;4703;48.748;19.142;2023-07-13T09:16:13;9.60;;;8.40;;
9328;SDS011;4703;48.748;19.142;2023-07-13T09:18:41;10.97;;;9.43;;
9328;SDS011;4703;48.748;19.142;2023-07-13T09:21:13;8.30;;;7.47;;
9328;SDS011;4703;48.748;19.142;2023-07-13T09:23:53;16.20;;;9.93;;
9328;SDS011;4703;48.748;19.142;2023-07-13T09:26:25;9.00;;;8.10;;
9328;SDS011;4703;48.748;19.142;2023-07-13T09:29:03;9.67;;;8.87;;
9328;SDS011;4703;48.748;19.142;2023-07-13T09:31:49;9.70;;;8.90;;
9328;SDS011;4703;48.748;19.142;2023-07-13T09:34:21;8.87;;;8.03;;
9328;SDS011;4703;48.748;19.142;2023-07-13T09:36:48;9.70;;;8.80;;
9328;SDS011;4703;48.748;19.142;2023-07-13T09:39:19;8.33;;;7.60;;
9328;SDS011;4703;48.748;19.142;2023-07-13T09:44:52;10.03;;;9.13;;
9328;SDS011;4703;48.748;19.142;2023-07-13T09:47:23;8.80;;;7.60;;
9328;SDS011;4703;48.748;19.142;2023-07-13T09:50:02;9.37;;;8.37;;
9328;SDS011;4703;48.748;19.142;2023-07-13T09:52:40;9.53;;;8.23;;
9328;SDS011;4703;48.748;19.142;2023-07-13T10:00:31;9.37;;;8.47;;
9328;SDS011;4703;48.748;19.142;2023-07-13T10:03:21;10.20;;;9.23;;
9328;SDS011;4703;48.748;19.142;2023-07-13T10:05:52;9.20;;;8.30;;
9328;SDS011;4703;48.748;19.142;2023-07-13T10:10:58;7.90;;;7.20;;
9328;SDS011;4703;48.748;19.142;2023-07-13T10:13:36;9.10;;;7.53;;
9328;SDS011;4703;48.748;19.142;2023-07-13T10:16:55;9.30;;;8.43;;
9328;SDS011;4703;48.748;19.142;2023-07-13T10:19:29;8.57;;;7.87;;
9328;SDS011;4703;48.748;19.142;2023-07-13T10:22:00;7.97;;;7.30;;
9328;SDS011;4703;48.748;19.142;2023-07-13T10:24:39;9.17;;;8.40;;
9328;SDS011;4703;48.748;19.142;2023-07-13T10:27:24;9.00;;;8.20;;
9328;SDS011;4703;48.748;19.142;2023-07-13T10:30:02;7.57;;;6.97;;
9328;SDS011;4703;48.748;19.142;2023-07-13T10:32:51;7.43;;;6.80;;
9328;SDS011;4703;48.748;19.142;2023-07-13T10:35:20;7.30;;;6.60;;
9328;SDS011;4703;48.748;19.142;2023-07-13T10:38:02;6.70;;;6.13;;
9328;SDS011;4703;48.748;19.142;2023-07-13T10:40:41;7.90;;;7.30;;
9328;SDS011;4703;48.748;19.142;2023-07-13T10:43:18;8.60;;;6.97;;
9328;SDS011;4703;48.748;19.142;2023-07-13T10:45:53;7.60;;;7.00;;
9328;SDS011;4703;48.748;19.142;2023-07-13T10:48:21;7.17;;;6.60;;
9328;SDS011;4703;48.748;19.142;2023-07-13T10:50:50;7.23;;;6.63;;
9328;SDS011;4703;48.748;19.142;2023-07-13T10:53:30;7.37;;;6.67;;
9328;SDS011;4703;48.748;19.142;2023-07-13T10:56:00;8.20;;;6.80;;
9328;SDS011;4703;48.748;19.142;2023-07-13T11:06:39;7.50;;;5.40;;
9328;SDS011;4703;48.748;19.142;2023-07-13T11:20:34;5.97;;;5.57;;
9328;SDS011;4703;48.748;19.142;2023-07-13T11:25:38;6.00;;;5.50;;
9328;SDS011;4703;48.748;19.142;2023-07-13T11:30:40;6.33;;;5.73;;
9328;SDS011;4703;48.748;19.142;2023-07-13T11:36:13;6.13;;;5.67;;
9328;SDS011;4703;48.748;19.142;2023-07-13T11:41:36;6.27;;;5.87;;
9328;SDS011;4703;48.748;19.142;2023-07-13T11:44:14;6.33;;;5.77;;
9328;SDS011;4703;48.748;19.142;2023-07-13T11:46:49;6.43;;;5.93;;
9328;SDS011;4703;48.748;19.142;2023-07-13T11:49:22;5.60;;;5.20;;
9328;SDS011;4703;48.748;19.142;2023-07-13T11:51:53;5.70;;;5.30;;
9328;SDS011;4703;48.748;19.142;2023-07-13T11:56:56;6.10;;;5.60;;
9328;SDS011;4703;48.748;19.142;2023-07-13T11:59:29;5.67;;;5.27;;
9328;SDS011;4703;48.748;19.142;2023-07-13T12:01:57;6.50;;;5.90;;
9328;SDS011;4703;48.748;19.142;2023-07-13T12:04:26;6.50;;;6.00;;
9328;SDS011;4703;48.748;19.142;2023-07-13T12:07:11;5.47;;;5.07;;
9328;SDS011;4703;48.748;19.142;2023-07-13T12:09:43;6.57;;;6.07;;
9328;SDS011;4703;48.748;19.142;2023-07-13T12:12:14;6.30;;;5.53;;
9328;SDS011;4703;48.748;19.142;2023-07-13T12:14:45;5.60;;;5.30;;
9328;SDS011;4703;48.748;19.142;2023-07-13T12:17:16;5.80;;;5.33;;
9328;SDS011;4703;48.748;19.142;2023-07-13T12:19:50;4.93;;;4.63;;
9328;SDS011;4703;48.748;19.142;2023-07-13T12:22:19;6.10;;;5.70;;
9328;SDS011;4703;48.748;19.142;2023-07-13T12:24:47;5.57;;;5.17;;
9328;SDS011;4703;48.748;19.142;2023-07-13T12:27:19;6.53;;;5.93;;
9328;SDS011;4703;48.748;19.142;2023-07-13T12:30:03;6.40;;;6.00;;
9328;SDS011;4703;48.748;19.142;2023-07-13T12:35:53;6.30;;;5.70;;
9328;SDS011;4703;48.748;19.142;2023-07-13T12:38:21;5.10;;;4.70;;
9328;SDS011;4703;48.748;19.142;2023-07-13T12:40:51;5.40;;;5.00;;
9328;SDS011;4703;48.748;19.142;2023-07-13T12:43:20;6.10;;;5.63;;
9328;SDS011;4703;48.748;19.142;2023-07-13T12:48:28;6.00;;;5.50;;
9328;SDS011;4703;48.748;19.142;2023-07-13T12:51:13;6.13;;;5.73;;
9328;SDS011;4703;48.748;19.142;2023-07-13T12:53:47;6.40;;;5.40;;
9328;SDS011;4703;48.748;19.142;2023-07-13T12:56:24;6.70;;;6.20;;
9328;SDS011;4703;48.748;19.142;2023-07-13T12:58:57;6.10;;;5.60;;
9328;SDS011;4703;48.748;19.142;2023-07-13T13:01:28;7.37;;;6.67;;
9328;SDS011;4703;48.748;19.142;2023-07-13T13:04:01;6.47;;;5.97;;
9328;SDS011;4703;48.748;19.142;2023-07-13T13:06:35;6.07;;;5.57;;
9328;SDS011;4703;48.748;19.142;2023-07-13T13:09:03;6.00;;;5.60;;
9328;SDS011;4703;48.748;19.142;2023-07-13T13:11:40;6.73;;;6.13;;
9328;SDS011;4703;48.748;19.142;2023-07-13T13:14:08;6.00;;;5.50;;
9328;SDS011;4703;48.748;19.142;2023-07-13T13:16:37;6.83;;;6.43;;
9328;SDS011;4703;48.748;19.142;2023-07-13T13:19:17;5.73;;;5.37;;
9328;SDS011;4703;48.748;19.142;2023-07-13T13:21:52;6.23;;;5.73;;
9328;SDS011;4703;48.748;19.142;2023-07-13T13:24:24;5.43;;;5.03;;
9328;SDS011;4703;48.748;19.142;2023-07-13T13:26:54;6.03;;;5.63;;
9328;SDS011;4703;48.748;19.142;2023-07-13T13:29:24;5.63;;;5.23;;
9328;SDS011;4703;48.748;19.142;2023-07-13T13:31:52;5.40;;;5.00;;
9328;SDS011;4703;48.748;19.142;2023-07-13T13:34:20;5.97;;;5.47;;
9328;SDS011;4703;48.748;19.142;2023-07-13T13:36:53;5.50;;;5.10;;
9328;SDS011;4703;48.748;19.142;2023-07-13T13:39:35;5.30;;;4.90;;
9328;SDS011;4703;48.748;19.142;2023-07-13T13:42:03;4.80;;;4.33;;
9328;SDS011;4703;48.748;19.142;2023-07-13T13:44:31;5.93;;;5.40;;
9328;SDS011;4703;48.748;19.142;2023-07-13T13:46:58;7.57;;;6.87;;
9328;SDS011;4703;48.748;19.142;2023-07-13T13:49:26;14.60;;;13.20;;
9328;SDS011;4703;48.748;19.142;2023-07-13T13:51:55;6.27;;;5.67;;
9328;SDS011;4703;48.748;19.142;2023-07-13T13:54:23;5.10;;;4.80;;
9328;SDS011;4703;48.748;19.142;2023-07-13T13:56:52;4.87;;;4.57;;
9328;SDS011;4703;48.748;19.142;2023-07-13T13:59:19;5.60;;;5.20;;
9328;SDS011;4703;48.748;19.142;2023-07-13T14:01:46;5.30;;;5.00;;
9328;SDS011;4703;48.748;19.142;2023-07-13T14:04:20;4.70;;;4.40;;
9328;SDS011;4703;48.748;19.142;2023-07-13T14:06:48;7.23;;;5.30;;
9328;SDS011;4703;48.748;19.142;2023-07-13T14:09:18;5.10;;;4.60;;
9328;SDS011;4703;48.748;19.142;2023-07-13T14:11:46;5.73;;;5.13;;
9328;SDS011;4703;48.748;19.142;2023-07-13T14:14:20;5.67;;;5.33;;
9328;SDS011;4703;48.748;19.142;2023-07-13T14:16:49;6.03;;;5.53;;
9328;SDS011;4703;48.748;19.142;2023-07-13T14:19:20;6.33;;;5.87;;
9328;SDS011;4703;48.748;19.142;2023-07-13T14:21:48;6.50;;;6.00;;
9328;SDS011;4703;48.748;19.142;2023-07-13T14:24:16;6.83;;;6.23;;
9328;SDS011;4703;48.748;19.142;2023-07-13T14:26:45;6.13;;;5.53;;
9328;SDS011;4703;48.748;19.142;2023-07-13T14:29:14;7.17;;;6.60;;
9328;SDS011;4703;48.748;19.142;2023-07-13T14:31:48;6.20;;;5.80;;
9328;SDS011;4703;48.748;19.142;2023-07-13T14:34:16;6.63;;;6.00;;
9328;SDS011;4703;48.748;19.142;2023-07-13T14:36:44;6.53;;;5.90;;
9328;SDS011;4703;48.748;19.142;2023-07-13T14:39:17;8.70;;;7.90;;
9328;SDS011;4703;48.748;19.142;2023-07-13T14:41:53;6.70;;;6.20;;
9328;SDS011;4703;48.748;19.142;2023-07-13T14:44:29;6.93;;;6.33;;
9328;SDS011;4703;48.748;19.142;2023-07-13T14:46:58;19.30;;;16.43;;
9328;SDS011;4703;48.748;19.142;2023-07-13T14:49:31;9.03;;;8.20;;
9328;SDS011;4703;48.748;19.142;2023-07-13T14:52:10;7.10;;;6.50;;
9328;SDS011;4703;48.748;19.142;2023-07-13T14:54:56;6.50;;;5.90;;
9328;SDS011;4703;48.748;19.142;2023-07-13T14:57:23;6.97;;;6.37;;
9328;SDS011;4703;48.748;19.142;2023-07-13T14:59:50;5.80;;;5.30;;
9328;SDS011;4703;48.748;19.142;2023-07-13T15:02:19;6.10;;;5.57;;
9328;SDS011;4703;48.748;19.142;2023-07-13T15:04:57;6.03;;;5.33;;
9328;SDS011;4703;48.748;19.142;2023-07-13T15:07:24;5.57;;;5.17;;
9328;SDS011;4703;48.748;19.142;2023-07-13T15:09:51;6.10;;;5.60;;
9328;SDS011;4703;48.748;19.142;2023-07-13T15:12:18;5.93;;;5.40;;
9328;SDS011;4703;48.748;19.142;2023-07-13T15:14:46;5.70;;;5.20;;
9328;SDS011;4703;48.748;19.142;2023-07-13T15:17:18;5.60;;;4.80;;
9328;SDS011;4703;48.748;19.142;2023-07-13T15:20:05;6.33;;;5.87;;
9328;SDS011;4703;48.748;19.142;2023-07-13T15:22:41;5.20;;;4.80;;
9328;SDS011;4703;48.748;19.142;2023-07-13T15:25:14;5.60;;;5.10;;
9328;SDS011;4703;48.748;19.142;2023-07-13T15:27:47;5.63;;;5.23;;
9328;SDS011;4703;48.748;19.142;2023-07-13T15:30:14;7.13;;;6.53;;
9328;SDS011;4703;48.748;19.142;2023-07-13T15:32:42;6.90;;;5.20;;
9328;SDS011;4703;48.748;19.142;2023-07-13T15:35:18;6.37;;;5.87;;
9328;SDS011;4703;48.748;19.142;2023-07-13T15:37:48;6.00;;;5.60;;
9328;SDS011;4703;48.748;19.142;2023-07-13T15:40:16;6.43;;;5.83;;
9328;SDS011;4703;48.748;19.142;2023-07-13T15:42:44;5.40;;;4.90;;
9328;SDS011;4703;48.748;19.142;2023-07-13T15:47:43;5.83;;;5.43;;
9328;SDS011;4703;48.748;19.142;2023-07-13T15:50:16;5.53;;;5.03;;
9328;SDS011;4703;48.748;19.142;2023-07-13T15:52:50;4.70;;;4.30;;
9328;SDS011;4703;48.748;19.142;2023-07-13T15:55:21;5.33;;;4.83;;
9328;SDS011;4703;48.748;19.142;2023-07-13T15:57:49;5.70;;;5.20;;
9328;SDS011;4703;48.748;19.142;2023-07-13T16:00:20;5.17;;;4.77;;
9328;SDS011;4703;48.748;19.142;2023-07-13T16:02:53;6.70;;;4.80;;
9328;SDS011;4703;48.748;19.142;2023-07-13T16:05:21;5.40;;;5.00;;
9328;SDS011;4703;48.748;19.142;2023-07-13T16:07:51;7.60;;;6.90;;
9328;SDS011;4703;48.748;19.142;2023-07-13T16:10:20;29.47;;;22.90;;
9328;SDS011;4703;48.748;19.142;2023-07-13T16:12:53;8.50;;;7.40;;
9328;SDS011;4703;48.748;19.142;2023-07-13T16:15:21;5.50;;;5.10;;